Time;durP1;ratioP1;P1;durP2;ratioP2;P2;SDS_P1;SDS_P2;PMS_P1;PMS_P2;Temp;Humidity;BMP_temperature;BMP_pressure;BME280_temperature;BME280_humidity;BME280_pressure;Samples;Min_cycle;Max_cycle;Signal;HPM_P1;HPM_P2
2022/05/22 00:00:01;;;;;;;8.60;5.30;;;;;;;13.82;59.82;101335.94;687645;28;1432;-80
2022/05/22 00:00:24;;;;;;;8.27;5.30;;;;;;;13.75;59.59;101323.53;688910;28;1200;-80
2022/05/22 00:00:45;;;;;;;9.75;5.18;;;;;;;13.81;59.79;101333.25;682600;28;1347;-80
2022/05/22 00:01:06;;;;;;;9.93;4.93;;;;;;;13.80;59.77;101327.16;687533;28;1158;-81
2022/05/22 00:01:26;;;;;;;8.55;4.90;;;;;;;13.82;59.51;101337.66;690873;28;751;-81
2022/05/22 00:01:47;;;;;;;7.80;5.33;;;;;;;13.80;59.80;101332.41;685263;28;1160;-80
2022/05/22 00:02:09;;;;;;;9.45;5.90;;;;;;;13.83;59.79;101336.84;688335;28;1240;-80
2022/05/22 00:02:30;;;;;;;12.70;6.40;;;;;;;13.84;59.72;101338.59;688057;28;1292;-82
2022/05/22 00:02:53;;;;;;;12.40;5.93;;;;;;;13.73;59.63;101319.09;690735;28;1213;-82
2022/05/22 00:03:13;;;;;;;10.60;5.78;;;;;;;13.83;59.74;101334.22;688044;28;1000;-81
2022/05/22 00:03:34;;;;;;;10.82;5.60;;;;;;;13.82;59.69;101335.03;688193;28;803;-81
2022/05/22 00:03:55;;;;;;;10.33;5.80;;;;;;;13.83;59.76;101335.09;688055;28;1135;-81
2022/05/22 00:04:16;;;;;;;11.27;5.40;;;;;;;13.78;59.65;101323.56;693303;28;1293;-80
2022/05/22 00:04:37;;;;;;;12.15;5.60;;;;;;;13.81;59.64;101330.66;693501;28;939;-81
2022/05/22 00:04:57;;;;;;;12.87;5.40;;;;;;;13.79;59.82;101325.38;685335;28;1120;-80
2022/05/22 00:05:21;;;;;;;9.95;5.07;;;;;;;13.86;59.69;101331.66;684964;28;1331;-80
2022/05/22 00:05:42;;;;;;;6.95;4.75;;;;;;;13.76;59.76;101320.03;690371;28;1907;-80
2022/05/22 00:06:02;;;;;;;7.00;4.80;;;;;;;13.81;59.61;101331.53;684628;28;1092;-81
2022/05/22 00:06:23;;;;;;;9.35;5.28;;;;;;;13.80;60.09;101328.88;688021;28;1542;-81
2022/05/22 00:06:44;;;;;;;11.35;5.43;;;;;;;13.83;60.13;101327.22;693199;28;1200;-81
2022/05/22 00:07:07;;;;;;;13.30;5.83;;;;;;;13.83;60.01;101321.09;690708;28;1033;-81
2022/05/22 00:07:28;;;;;;;11.55;5.40;;;;;;;13.82;59.67;101320.19;690674;28;1279;-81
2022/05/22 00:07:48;;;;;;;8.40;5.30;;;;;;;13.84;59.65;101320.25;688100;28;1120;-80
2022/05/22 00:08:09;;;;;;;7.50;5.10;;;;;;;13.86;59.74;101321.16;693399;28;1157;-80
2022/05/22 00:08:29;;;;;;;8.45;5.22;;;;;;;13.87;59.78;101324.69;693375;28;1166;-80
2022/05/22 00:08:52;;;;;;;9.27;5.00;;;;;;;13.93;60.09;101325.69;688017;28;953;-81
2022/05/22 00:09:12;;;;;;;8.45;4.90;;;;;;;13.90;59.83;101328.22;693340;28;1225;-81
2022/05/22 00:09:34;;;;;;;9.82;4.93;;;;;;;13.93;59.67;101330.03;690384;28;783;-80
2022/05/22 00:09:55;;;;;;;11.63;5.20;;;;;;;13.88;59.97;101319.44;685358;28;1105;-80
2022/05/22 00:10:16;;;;;;;12.05;5.40;;;;;;;13.93;59.59;101328.31;688049;28;1184;-80
2022/05/22 00:10:36;;;;;;;12.10;5.70;;;;;;;13.87;59.73;101320.28;685392;28;804;-81
2022/05/22 00:10:57;;;;;;;11.65;5.70;;;;;;;13.92;59.69;101330.91;685363;28;958;-80
2022/05/22 00:11:22;;;;;;;11.57;5.55;;;;;;;13.92;60.18;101331.78;688005;28;1219;-81
2022/05/22 00:11:43;;;;;;;8.85;5.55;;;;;;;13.83;59.99;101307.97;685478;28;906;-81
2022/05/22 00:12:05;;;;;;;8.32;5.38;;;;;;;13.93;60.03;101328.31;687990;28;1111;-81
2022/05/22 00:12:26;;;;;;;9.75;5.30;;;;;;;13.90;59.85;101316.88;687966;28;1266;-80
2022/05/22 00:12:47;;;;;;;8.80;4.97;;;;;;;13.92;59.77;101321.31;693410;28;1145;-80
2022/05/22 00:13:08;;;;;;;9.88;5.10;;;;;;;13.83;59.85;101310.59;690673;28;1252;-80
2022/05/22 00:13:28;;;;;;;9.35;5.30;;;;;;;13.83;59.98;101310.59;690794;28;780;-80
2022/05/22 00:13:49;;;;;;;10.30;5.30;;;;;;;13.93;60.00;101324.78;690722;28;966;-80
2022/05/22 00:14:13;;;;;;;9.05;5.38;;;;;;;13.82;59.81;101311.44;690682;28;1258;-80
2022/05/22 00:14:35;;;;;;;7.50;5.18;;;;;;;13.90;59.75;101322.97;693439;28;1526;-81
2022/05/22 00:14:55;;;;;;;7.72;5.15;;;;;;;13.86;60.10;101313.28;690756;28;965;-80
2022/05/22 00:15:16;;;;;;;7.30;5.07;;;;;;;13.88;59.75;101318.56;687880;28;1090;-81
2022/05/22 00:16:36;;;;;;;8.45;5.30;;;;;;;13.89;60.10;101323.84;690810;28;776;-81
2022/05/22 00:16:57;;;;;;;9.38;5.45;;;;;;;13.90;59.74;101316.88;690491;28;1210;-80
2022/05/22 00:17:17;;;;;;;9.55;5.53;;;;;;;13.87;59.77;101322.91;685251;28;934;-80
2022/05/22 00:17:38;;;;;;;11.90;5.40;;;;;;;13.91;59.87;101324.78;688151;28;784;-80
2022/05/22 00:17:59;;;;;;;12.27;5.20;;;;;;;13.80;59.87;101310.50;692080;28;1287;-81
2022/05/22 00:18:19;;;;;;;11.48;5.00;;;;;;;13.89;59.89;101318.59;689729;28;1238;-80
2022/05/22 00:18:40;;;;;;;10.60;5.00;;;;;;;13.80;59.69;101310.50;690867;28;910;-81
2022/05/22 00:19:00;;;;;;;11.18;5.00;;;;;;;13.80;59.71;101311.41;690202;28;1158;-80
2022/05/22 00:19:25;;;;;;;11.93;5.13;;;;;;;13.85;59.87;101319.38;682445;29;1291;-80
2022/05/22 00:19:45;;;;;;;9.27;4.90;;;;;;;13.79;60.15;101308.75;687466;28;1276;-80
2022/05/22 00:20:07;;;;;;;8.00;4.60;;;;;;;13.84;59.80;101325.50;693335;28;1193;-80
2022/05/22 00:20:27;;;;;;;10.68;4.40;;;;;;;13.80;59.96;101315.75;690661;28;1415;-80
2022/05/22 00:20:50;;;;;;;10.50;4.65;;;;;;;13.75;59.94;101299.03;685340;28;1161;-80
2022/05/22 00:21:11;;;;;;;9.63;5.00;;;;;;;13.75;60.03;101304.28;685352;28;967;-81
2022/05/22 00:21:34;;;;;;;9.40;5.00;;;;;;;13.72;59.86;101302.47;690741;28;1153;-80
2022/05/22 00:21:54;;;;;;;9.40;5.10;;;;;;;13.76;60.21;101304.31;687906;28;925;-80
2022/05/22 00:22:18;;;;;;;10.55;5.18;;;;;;;13.76;59.96;101308.69;682599;28;1120;-81
2022/05/22 00:22:39;;;;;;;11.73;5.60;;;;;;;13.74;60.20;101305.13;685428;28;1064;-79
2022/05/22 00:23:00;;;;;;;11.32;5.65;;;;;;;13.76;60.03;101309.56;687820;28;1099;-79
2022/05/22 00:23:20;;;;;;;11.10;5.60;;;;;;;13.73;59.89;101303.34;687894;28;1346;-80
2022/05/22 00:23:43;;;;;;;11.00;5.30;;;;;;;13.77;59.88;101311.31;688079;28;1284;-79
2022/05/22 00:24:05;;;;;;;11.23;5.20;;;;;;;13.78;60.02;101307.84;687853;28;1035;-80
2022/05/22 00:24:31;;;;;;;10.13;5.30;;;;;;;13.69;60.02;101292.78;682674;29;1217;-79
2022/05/22 00:24:52;;;;;;;9.68;5.50;;;;;;;13.69;60.19;101300.66;685111;28;1154;-79
2022/05/22 00:25:13;;;;;;;7.85;5.03;;;;;;;13.65;60.40;101296.19;685194;28;1192;-79
2022/05/22 00:25:33;;;;;;;7.43;5.10;;;;;;;13.70;60.42;101302.44;688016;28;1970;-79
2022/05/22 00:25:58;;;;;;;8.80;5.27;;;;;;;13.68;60.14;101300.63;690201;28;1055;-79
2022/05/22 00:26:19;;;;;;;9.25;5.40;;;;;;;13.69;60.21;101292.78;690142;28;1268;-79
2022/05/22 00:26:40;;;;;;;9.73;5.70;;;;;;;13.74;60.32;101305.13;690705;28;1192;-79
2022/05/22 00:27:03;;;;;;;9.68;5.90;;;;;;;13.71;60.28;101305.94;690543;28;961;-79
2022/05/22 00:27:28;;;;;;;12.15;5.95;;;;;;;13.68;60.29;101306.75;685374;28;1226;-79
2022/05/22 00:27:48;;;;;;;11.50;5.83;;;;;;;13.66;60.42;101299.69;693309;28;1138;-80
2022/05/22 00:28:10;;;;;;;9.95;5.90;;;;;;;13.68;60.31;101301.50;686955;28;1118;-79
2022/05/22 00:28:31;;;;;;;10.85;6.00;;;;;;;13.64;60.50;101304.91;690698;28;853;-80
2022/05/22 00:28:51;;;;;;;11.60;5.80;;;;;;;13.67;60.26;101310.25;695744;28;1107;-79
2022/05/22 00:29:13;;;;;;;13.02;5.40;;;;;;;13.64;60.43;101315.38;690640;28;1092;-79
2022/05/22 00:29:34;;;;;;;13.77;5.38;;;;;;;13.67;60.54;101311.97;684873;28;1448;-80
2022/05/22 00:30:00;;;;;;;12.27;5.75;;;;;;;13.55;60.35;101295.09;689701;28;1250;-81
2022/05/22 00:30:21;;;;;;;11.73;5.60;;;;;;;13.60;60.55;101308.31;687756;28;1546;-79
2022/05/22 00:30:41;;;;;;;9.15;5.40;;;;;;;13.51;60.28;101281.88;690041;28;1101;-80
2022/05/22 00:31:02;;;;;;;8.67;5.30;;;;;;;13.63;60.58;101308.38;687422;28;1035;-80
2022/05/22 00:31:23;;;;;;;8.80;5.82;;;;;;;13.54;60.29;101295.06;685290;28;1155;-80
2022/05/22 00:31:44;;;;;;;10.70;5.85;;;;;;;13.55;60.87;101291.56;688165;28;1295;-80
2022/05/22 00:32:06;;;;;;;10.33;5.80;;;;;;;13.52;60.51;101289.75;685092;28;1065;-79
2022/05/22 00:32:27;;;;;;;10.13;5.60;;;;;;;13.53;60.58;101293.28;690668;28;1314;-79
2022/05/22 00:32:47;;;;;;;9.23;5.68;;;;;;;13.57;60.65;101308.22;687790;28;1221;-80
2022/05/22 00:33:11;;;;;;;12.30;5.70;;;;;;;13.59;60.76;101300.41;687939;28;1249;-79
2022/05/22 00:33:32;;;;;;;12.27;5.40;;;;;;;13.55;60.67;101291.56;693345;28;1248;-79
2022/05/22 00:33:53;;;;;;;10.57;5.60;;;;;;;13.51;60.87;101295.00;688024;28;1071;-80
2022/05/22 00:34:14;;;;;;;9.23;5.72;;;;;;;13.57;60.90;101302.97;687450;28;1173;-79
2022/05/22 00:34:37;;;;;;;8.75;5.55;;;;;;;13.57;60.83;101302.97;685327;28;895;-79
2022/05/22 00:34:57;;;;;;;9.80;5.50;;;;;;;13.48;61.04;101292.28;688226;28;1319;-80
2022/05/22 00:35:18;;;;;;;9.20;5.63;;;;;;;13.53;60.97;101298.53;690566;28;1428;-81
2022/05/22 00:35:40;;;;;;;11.60;6.00;;;;;;;13.50;61.30;101295.81;687790;28;1374;-79
2022/05/22 00:36:02;;;;;;;9.93;5.82;;;;;;;13.54;60.78;101302.91;692787;28;1340;-79
2022/05/22 00:36:23;;;;;;;11.27;5.70;;;;;;;13.52;61.00;101297.63;690769;28;1443;-79
2022/05/22 00:36:44;;;;;;;10.53;5.60;;;;;;;13.45;61.09;101285.22;682544;28;1235;-80
2022/05/22 00:37:06;;;;;;;11.53;5.60;;;;;;;13.51;61.03;101295.00;690396;28;1126;-80
2022/05/22 00:37:26;;;;;;;9.77;5.60;;;;;;;13.48;60.88;101289.66;692826;28;1338;-80
2022/05/22 00:37:48;;;;;;;10.93;6.03;;;;;;;13.46;61.13;101286.97;687686;28;1371;-80
2022/05/22 00:38:09;;;;;;;12.77;6.18;;;;;;;13.51;61.04;101300.22;690684;28;997;-80
2022/05/22 00:38:30;;;;;;;14.05;6.18;;;;;;;13.50;61.06;101295.81;693326;28;1149;-79
2022/05/22 00:38:51;;;;;;;13.33;5.60;;;;;;;13.48;61.13;101292.28;689903;28;1135;-80
2022/05/22 00:39:12;;;;;;;14.10;6.10;;;;;;;13.48;61.23;101289.66;690547;28;1180;-79
2022/05/22 00:39:33;;;;;;;12.25;6.00;;;;;;;13.46;61.00;101283.50;687428;28;1190;-79
2022/05/22 00:39:54;;;;;;;10.88;6.18;;;;;;;13.49;61.31;101294.03;690306;28;1374;-79
2022/05/22 00:40:15;;;;;;;9.50;5.90;;;;;;;13.45;61.25;101286.97;693351;28;962;-80
2022/05/22 00:40:37;;;;;;;11.33;6.20;;;;;;;13.49;61.16;101296.66;690145;28;1249;-79
2022/05/22 00:40:58;;;;;;;12.20;6.00;;;;;;;13.41;61.33;101275.50;685444;28;979;-79
2022/05/22 00:41:19;;;;;;;13.55;5.70;;;;;;;13.53;61.48;101311.63;687669;28;1354;-80
2022/05/22 00:41:54;;;;;;;11.18;5.30;;;;;;;13.51;61.25;101308.97;688055;28;769;-79
2022/05/22 00:42:19;;;;;;;11.18;5.93;;;;;;;13.42;61.18;101290.41;690056;28;1175;-79
2022/05/22 00:42:43;;;;;;;10.18;6.38;;;;;;;13.44;61.30;101291.31;690266;28;1396;-80
2022/05/22 00:43:03;;;;;;;11.38;6.18;;;;;;;13.43;61.07;101289.53;690581;28;1071;-80
2022/05/22 00:43:49;;;;;;;9.43;5.40;;;;;;;13.55;61.08;101309.94;693287;28;1151;-80
2022/05/22 00:44:09;;;;;;;6.45;5.20;;;;;;;13.52;61.23;101304.63;692777;28;1254;-80
2022/05/22 00:44:30;;;;;;;7.68;5.40;;;;;;;13.49;61.50;101291.41;687974;28;1204;-80
2022/05/22 00:44:53;;;;;;;10.03;5.80;;;;;;;13.52;61.07;101304.63;687873;28;1161;-79
2022/05/22 00:45:13;;;;;;;10.57;5.85;;;;;;;13.53;61.42;101309.00;687864;28;1373;-79
2022/05/22 00:45:34;;;;;;;11.73;5.95;;;;;;;13.50;61.08;101295.81;685275;28;1909;-81
2022/05/22 00:45:56;;;;;;;10.23;6.00;;;;;;;13.46;61.34;101289.59;690513;28;1280;-79
2022/05/22 00:46:18;;;;;;;10.55;6.07;;;;;;;13.55;61.50;101309.94;690531;28;1142;-79
2022/05/22 00:46:39;;;;;;;9.30;5.88;;;;;;;13.55;61.38;101315.19;686354;28;1119;-79
2022/05/22 00:46:59;;;;;;;10.40;5.67;;;;;;;13.48;61.37;101298.41;685140;28;1039;-79
2022/05/22 00:47:22;;;;;;;10.00;5.80;;;;;;;13.45;61.12;101298.31;693316;28;1237;-80
2022/05/22 00:47:42;;;;;;;8.90;5.70;;;;;;;13.50;61.35;101308.91;687889;28;1363;-79
2022/05/22 00:48:04;;;;;;;11.75;6.20;;;;;;;13.45;61.14;101289.59;689363;28;1286;-80
2022/05/22 00:48:26;;;;;;;11.88;6.22;;;;;;;13.53;61.32;101311.63;685197;28;1291;-79
2022/05/22 00:48:54;;;;;;;12.60;6.35;;;;;;;13.47;61.37;101307.13;682436;29;1276;-81
2022/05/22 00:49:21;;;;;;;10.30;5.90;;;;;;;13.48;61.28;101314.16;690501;28;1336;-80
2022/05/22 00:49:44;;;;;;;8.65;5.80;;;;;;;13.47;61.38;101311.47;687404;28;811;-79
2022/05/22 00:50:05;;;;;;;9.18;5.80;;;;;;;13.50;61.70;101314.16;692661;28;1314;-80
2022/05/22 00:50:26;;;;;;;8.32;5.80;;;;;;;13.44;61.35;101301.78;690634;28;838;-80
2022/05/22 00:50:47;;;;;;;9.00;5.90;;;;;;;13.52;61.40;101317.72;687947;28;1067;-80
2022/05/22 00:51:30;;;;;;;11.05;6.25;;;;;;;13.56;61.34;101319.56;693217;28;1991;-79
2022/05/22 00:52:05;;;;;;;11.05;6.30;;;;;;;13.51;61.73;101310.72;693033;28;1964;-79
2022/05/22 00:52:56;;;;;;;12.38;5.82;;;;;;;13.61;61.31;101325.81;687999;28;877;-80
2022/05/22 00:53:19;;;;;;;10.27;6.25;;;;;;;13.56;61.57;101307.34;688924;28;1397;-79
2022/05/22 00:53:48;;;;;;;15.65;6.50;;;;;;;13.58;61.25;101310.00;690584;28;1416;-80
2022/05/22 00:54:12;;;;;;;17.05;6.40;;;;;;;13.63;61.32;101307.50;690483;28;1092;-79
2022/05/22 00:54:47;;;;;;;12.88;6.28;;;;;;;13.68;61.17;101317.25;690762;28;768;-79
2022/05/22 00:55:07;;;;;;;10.90;5.93;;;;;;;13.73;61.33;101321.72;690502;28;1032;-79
2022/05/22 00:55:31;;;;;;;10.25;5.80;;;;;;;13.69;61.10;101305.91;690674;28;929;-79
2022/05/22 00:55:52;;;;;;;8.70;5.63;;;;;;;13.75;61.05;101317.41;690578;28;980;-79
2022/05/22 00:56:17;;;;;;;8.27;5.68;;;;;;;13.75;61.01;101313.03;687886;28;1371;-80
2022/05/22 00:56:46;;;;;;;10.02;6.25;;;;;;;13.69;60.99;101303.28;685219;28;1354;-80
2022/05/22 00:57:21;;;;;;;11.07;6.40;;;;;;;13.71;60.77;101300.72;687569;28;1052;-79
2022/05/22 00:57:50;;;;;;;10.73;6.68;;;;;;;13.81;60.87;101314.91;693376;28;898;-79
2022/05/22 00:58:14;;;;;;;10.43;6.47;;;;;;;13.77;60.76;101299.97;690610;28;1017;-79
2022/05/22 00:58:36;;;;;;;10.75;6.10;;;;;;;13.77;60.72;101294.72;690140;28;1378;-80
2022/05/22 00:58:56;;;;;;;13.27;6.38;;;;;;;13.86;60.38;101308.03;682513;28;1412;-80
2022/05/22 00:59:22;;;;;;;15.18;6.45;;;;;;;13.85;60.73;101308.91;687800;28;1311;-79
2022/05/22 00:59:48;;;;;;;13.52;6.55;;;;;;;13.84;60.73;101301.88;692249;28;1387;-80
2022/05/22 01:00:14;;;;;;;9.70;6.32;;;;;;;13.78;60.75;101292.09;689786;28;1095;-80
2022/05/22 01:00:39;;;;;;;9.05;6.03;;;;;;;13.81;60.48;101296.53;688112;28;1374;-80
2022/05/22 01:00:59;;;;;;;10.07;6.32;;;;;;;13.77;60.68;101289.47;695948;28;1193;-79
2022/05/22 01:01:20;;;;;;;12.30;6.45;;;;;;;13.83;60.46;101295.72;690524;28;1154;-79
2022/05/22 01:01:42;;;;;;;12.60;6.55;;;;;;;13.77;60.47;101289.47;685112;28;1301;-80
2022/05/22 01:02:03;;;;;;;10.95;6.13;;;;;;;13.83;60.34;101305.34;687820;28;1228;-79
2022/05/22 01:02:28;;;;;;;11.30;6.25;;;;;;;13.74;60.58;101284.13;687864;28;1380;-80
2022/05/22 01:03:29;;;;;;;9.55;5.45;;;;;;;13.70;60.50;101284.06;685264;28;2150;-79
2022/05/22 01:03:55;;;;;;;10.05;5.80;;;;;;;13.75;60.60;101301.66;690543;28;1162;-80
2022/05/22 01:04:21;;;;;;;12.00;6.32;;;;;;;13.74;60.84;101311.25;690495;28;1029;-80
2022/05/22 01:04:46;;;;;;;11.85;6.28;;;;;;;13.70;60.73;101294.56;688024;28;867;-79
2022/05/22 01:05:07;;;;;;;10.88;6.45;;;;;;;13.69;60.87;101291.91;687720;28;1299;-79
2022/05/22 01:05:28;;;;;;;7.75;6.22;;;;;;;13.71;60.51;101301.56;687899;28;1390;-79
2022/05/22 01:05:49;;;;;;;10.63;7.13;;;;;;;13.68;60.70;101293.66;690432;28;1910;-80
2022/05/22 01:06:16;;;;;;;12.85;7.35;;;;;;;13.73;60.93;101304.25;690503;28;1194;-79
2022/05/22 01:06:37;;;;;;;14.00;6.90;;;;;;;13.68;60.95;101293.66;688204;28;1538;-80
2022/05/22 01:07:06;;;;;;;10.63;6.20;;;;;;;13.69;60.53;101302.38;687662;28;1158;-79
2022/05/22 01:07:26;;;;;;;8.70;5.50;;;;;;;13.70;60.86;101301.53;687872;28;1250;-79
2022/05/22 01:07:48;;;;;;;8.57;5.50;;;;;;;13.70;60.70;101305.06;687702;28;1284;-78
2022/05/22 01:08:09;;;;;;;8.85;5.57;;;;;;;13.70;60.71;101289.31;687788;28;1138;-79
2022/05/22 01:08:33;;;;;;;7.25;5.30;;;;;;;13.74;61.01;101297.25;682519;29;1118;-80
2022/05/22 01:08:53;;;;;;;7.15;5.60;;;;;;;13.66;60.35;101295.31;682396;29;1342;-79
2022/05/22 01:09:15;;;;;;;10.77;6.10;;;;;;;13.73;60.74;101295.47;684444;28;1028;-79
2022/05/22 01:09:36;;;;;;;13.38;6.60;;;;;;;13.69;60.84;101290.16;681649;29;1381;-80
2022/05/22 01:10:04;;;;;;;12.48;6.22;;;;;;;13.71;60.60;101300.72;685108;28;1068;-80
2022/05/22 01:10:32;;;;;;;10.73;5.80;;;;;;;13.73;60.87;101300.72;693215;28;1422;-79
2022/05/22 01:10:58;;;;;;;12.52;5.70;;;;;;;13.70;60.91;101294.56;687883;28;1072;-80
2022/05/22 01:11:25;;;;;;;16.10;5.68;;;;;;;13.73;60.80;101303.34;685158;28;1199;-79
2022/05/22 01:11:49;;;;;;;11.90;5.68;;;;;;;13.66;60.92;101291.84;687800;28;1180;-80
2022/05/22 01:12:17;;;;;;;10.13;6.00;;;;;;;13.69;60.86;101289.28;687816;28;1233;-79
2022/05/22 01:12:43;;;;;;;11.35;5.88;;;;;;;13.75;61.09;101293.81;687886;28;895;-79
2022/05/22 01:13:05;;;;;;;9.55;5.60;;;;;;;13.68;61.08;101291.03;690380;28;1098;-80
2022/05/22 01:13:31;;;;;;;10.50;6.32;;;;;;;13.74;60.96;101298.16;687800;28;1390;-79
2022/05/22 01:14:03;;;;;;;8.63;6.22;;;;;;;13.68;61.47;101291.03;685230;28;965;-79
2022/05/22 01:14:26;;;;;;;7.95;5.75;;;;;;;13.68;61.51;101288.41;687407;28;1264;-79
2022/05/22 01:14:55;;;;;;;7.90;5.60;;;;;;;13.71;61.32;101290.22;685212;28;1100;-80
2022/05/22 01:15:16;;;;;;;7.30;6.00;;;;;;;13.74;61.05;101299.88;685115;28;1136;-80
2022/05/22 01:15:37;;;;;;;6.93;6.00;;;;;;;13.65;61.26;101288.31;690109;28;1504;-79
2022/05/22 01:15:59;;;;;;;8.38;6.20;;;;;;;13.70;61.34;101294.56;690465;28;1343;-79
2022/05/22 01:16:20;;;;;;;8.90;5.88;;;;;;;13.70;60.98;101285.78;687852;28;1364;-79
2022/05/22 01:16:41;;;;;;;8.88;5.80;;;;;;;13.69;61.34;101292.78;687397;28;1113;-79
2022/05/22 01:17:04;;;;;;;9.38;5.80;;;;;;;13.67;61.27;101285.72;687663;28;1359;-79
2022/05/22 01:17:26;;;;;;;8.60;5.43;;;;;;;13.73;61.31;101292.84;687821;28;1197;-79
2022/05/22 01:17:48;;;;;;;8.50;5.50;;;;;;;13.65;61.30;101280.44;690578;28;1056;-80
2022/05/22 01:18:08;;;;;;;9.70;5.60;;;;;;;13.72;61.25;101286.75;690632;28;993;-80
2022/05/22 01:18:30;;;;;;;9.70;5.60;;;;;;;13.68;61.35;101275.28;682559;29;1304;-79
2022/05/22 01:18:54;;;;;;;9.25;5.63;;;;;;;13.73;61.39;101283.25;687884;28;1193;-79
2022/05/22 01:19:21;;;;;;;10.43;5.82;;;;;;;13.66;61.24;101270.84;690229;28;1751;-79
2022/05/22 01:19:55;;;;;;;11.52;6.05;;;;;;;13.62;61.13;101275.13;694669;28;1373;-79
2022/05/22 01:20:17;;;;;;;11.60;6.47;;;;;;;13.60;61.18;101271.59;690387;28;1269;-79
2022/05/22 01:20:44;;;;;;;13.23;6.70;;;;;;;13.63;61.31;101276.91;690589;28;1229;-82
2022/05/22 01:21:45;;;;;;;14.63;6.45;;;;;;;13.66;61.50;101286.59;693180;28;1120;-80
2022/05/22 01:22:14;;;;;;;10.13;6.07;;;;;;;13.55;61.44;101273.22;688507;28;1288;-79
2022/05/22 01:22:37;;;;;;;11.23;6.13;;;;;;;13.53;61.80;101273.16;693143;28;1123;-79
2022/05/22 01:22:57;;;;;;;13.82;6.43;;;;;;;13.43;61.87;101264.22;685271;28;1220;-79
2022/05/22 01:23:19;;;;;;;14.90;6.53;;;;;;;13.43;61.83;101258.09;690554;28;1326;-80
2022/05/22 01:23:41;;;;;;;11.82;6.05;;;;;;;13.50;61.67;101277.47;690512;28;1310;-80
2022/05/22 01:24:08;;;;;;;8.35;5.95;;;;;;;13.39;61.82;101266.75;687768;28;973;-80
2022/05/22 01:24:29;;;;;;;8.27;5.90;;;;;;;13.33;61.68;101258.72;682574;29;860;-80
2022/05/22 01:24:50;;;;;;;11.50;5.90;;;;;;;13.42;61.85;101267.66;684376;28;1328;-79
2022/05/22 01:25:11;;;;;;;13.40;6.30;;;;;;;13.34;61.66;101261.34;693178;28;1129;-79
2022/05/22 01:25:32;;;;;;;14.27;6.30;;;;;;;13.41;61.72;101271.16;687877;28;1985;-79
2022/05/22 01:25:52;;;;;;;10.70;6.20;;;;;;;13.40;61.64;101258.88;687760;28;1177;-79
2022/05/22 01:26:14;;;;;;;9.32;5.60;;;;;;;13.47;61.36;101270.44;693137;28;1419;-80
2022/05/22 01:26:36;;;;;;;9.35;5.82;;;;;;;13.39;61.25;101246.63;690536;28;1216;-80
2022/05/22 01:27:21;;;;;;;9.52;6.50;;;;;;;13.51;61.29;101267.00;685132;28;1176;-79
2022/05/22 01:28:02;;;;;;;10.48;6.38;;;;;;;13.45;61.45;101266.88;687792;28;1017;-79
2022/05/22 01:28:23;;;;;;;11.82;6.15;;;;;;;13.39;61.41;101261.50;687665;28;1116;-79
2022/05/22 01:28:46;;;;;;;11.32;6.40;;;;;;;13.40;61.60;101269.38;687868;28;986;-79
2022/05/22 01:29:07;;;;;;;10.80;6.40;;;;;;;13.38;61.56;101254.44;687757;28;1290;-79
2022/05/22 01:29:28;;;;;;;10.75;6.72;;;;;;;13.43;61.42;101269.47;690438;28;728;-80
2022/05/22 01:29:49;;;;;;;9.93;6.30;;;;;;;13.32;61.64;101255.19;692864;28;1156;-80
2022/05/22 01:30:17;;;;;;;9.43;6.23;;;;;;;13.26;61.52;101255.94;690409;28;1401;-79
2022/05/22 01:30:38;;;;;;;7.13;5.80;;;;;;;13.26;61.91;101258.56;684446;28;1393;-80
2022/05/22 01:31:03;;;;;;;9.15;5.70;;;;;;;13.27;61.72;101269.94;690408;28;1080;-79
2022/05/22 01:31:26;;;;;;;8.73;5.82;;;;;;;13.20;61.92;101258.41;687798;28;1202;-79
2022/05/22 01:31:46;;;;;;;10.18;6.00;;;;;;;13.19;62.11;101254.00;687554;28;1139;-80
2022/05/22 01:32:08;;;;;;;10.60;6.47;;;;;;;13.26;61.89;101268.16;687631;28;1431;-79
2022/05/22 01:32:35;;;;;;;12.73;6.75;;;;;;;13.20;62.14;101257.53;690405;28;1225;-80
2022/05/22 01:32:59;;;;;;;11.27;7.07;;;;;;;13.11;61.76;101248.59;687736;28;977;-79
2022/05/22 01:33:19;;;;;;;12.03;6.80;;;;;;;13.09;62.09;101244.16;687771;28;1397;-79
2022/05/22 01:33:41;;;;;;;12.18;6.50;;;;;;;13.16;61.91;101260.06;687902;28;880;-79
2022/05/22 01:34:02;;;;;;;12.55;6.65;;;;;;;13.12;61.97;101247.75;687601;28;1088;-79
2022/05/22 01:34:23;;;;;;;11.13;6.80;;;;;;;13.13;62.11;101254.75;687981;28;1053;-79
2022/05/22 01:35:08;;;;;;;12.15;6.90;;;;;;;13.19;62.28;101268.84;690414;28;1121;-80
2022/05/22 01:35:30;;;;;;;12.15;6.50;;;;;;;13.12;62.20;101258.22;693062;28;1233;-80
2022/05/22 01:35:55;;;;;;;10.80;6.40;;;;;;;13.06;62.35;101247.56;693087;28;1210;-79
2022/05/22 01:36:17;;;;;;;10.63;6.50;;;;;;;13.07;62.27;101249.34;687635;28;1183;-80
2022/05/22 01:36:44;;;;;;;12.55;6.80;;;;;;;13.01;62.22;101243.94;693333;28;811;-80
2022/05/22 01:37:05;;;;;;;12.02;6.70;;;;;;;13.04;62.46;101253.63;690322;28;1179;-79
2022/05/22 01:37:27;;;;;;;12.27;6.60;;;;;;;13.05;62.37;101256.28;690292;28;1447;-79
2022/05/22 01:37:48;;;;;;;11.30;6.00;;;;;;;13.03;62.39;101257.97;687761;28;1359;-79
2022/05/22 01:38:09;;;;;;;10.55;5.80;;;;;;;13.01;62.75;101260.56;690403;28;1161;-79
2022/05/22 01:38:37;;;;;;;11.13;5.75;;;;;;;12.94;62.80;101249.88;688068;28;1287;-79
2022/05/22 01:38:58;;;;;;;10.70;5.82;;;;;;;12.98;62.66;101259.59;690297;28;1266;-79
2022/05/22 01:39:24;;;;;;;12.15;6.40;;;;;;;12.94;62.61;101261.25;687672;28;1097;-79
2022/05/22 01:39:49;;;;;;;12.40;6.30;;;;;;;12.92;62.58;101259.41;692209;28;1250;-79
2022/05/22 01:40:11;;;;;;;11.52;5.97;;;;;;;12.95;62.83;101267.34;690572;28;1000;-80
2022/05/22 01:40:34;;;;;;;12.43;6.03;;;;;;;12.94;62.69;101257.72;687654;28;1367;-80
2022/05/22 01:40:54;;;;;;;10.13;6.10;;;;;;;12.88;62.92;101261.94;690554;28;1026;-79
2022/05/22 01:41:31;;;;;;;8.30;6.10;;;;;;;12.82;62.99;101248.69;687835;28;1261;-79
2022/05/22 01:41:53;;;;;;;9.15;6.00;;;;;;;12.92;63.02;101275.13;687710;28;1200;-79
2022/05/22 01:42:14;;;;;;;9.70;6.10;;;;;;;12.86;63.02;101253.16;693131;28;1043;-80
2022/05/22 01:42:36;;;;;;;11.35;6.70;;;;;;;12.86;62.91;101258.38;693140;28;1311;-80
2022/05/22 01:43:09;;;;;;;12.05;6.68;;;;;;;12.82;63.17;101240.81;684806;28;1376;-80
2022/05/22 01:43:32;;;;;;;12.35;6.68;;;;;;;12.91;63.21;101265.50;689947;28;1693;-80
2022/05/22 01:43:53;;;;;;;9.55;6.50;;;;;;;12.91;63.01;101265.50;690405;28;1269;-80
2022/05/22 01:44:15;;;;;;;8.93;6.38;;;;;;;12.88;63.23;101267.19;690577;28;1077;-79
2022/05/22 01:44:35;;;;;;;8.60;6.00;;;;;;;12.83;63.05;101260.03;687363;28;1240;-79
2022/05/22 01:44:56;;;;;;;11.30;5.85;;;;;;;12.82;63.10;101255.66;684579;28;1146;-80
2022/05/22 01:45:22;;;;;;;13.40;6.20;;;;;;;12.85;63.17;101272.31;684996;28;1622;-79
2022/05/22 01:45:43;;;;;;;10.45;6.40;;;;;;;12.76;62.99;101251.13;682417;29;1907;-79
2022/05/22 01:46:04;;;;;;;10.68;6.35;;;;;;;12.82;63.12;101264.41;689851;28;1495;-80
2022/05/22 01:46:25;;;;;;;10.10;6.32;;;;;;;12.73;63.33;101253.69;692117;28;1241;-80
2022/05/22 01:46:54;;;;;;;10.15;6.22;;;;;;;12.68;62.94;101245.72;685020;28;1257;-79
2022/05/22 01:47:18;;;;;;;9.88;6.18;;;;;;;12.68;63.28;101245.72;679743;29;1611;-79
2022/05/22 01:47:40;;;;;;;11.52;6.22;;;;;;;12.70;63.29;101253.59;690525;28;1196;-79
2022/05/22 01:48:02;;;;;;;11.02;5.95;;;;;;;12.77;63.31;101268.63;689959;28;1466;-79
2022/05/22 01:48:33;;;;;;;11.90;6.72;;;;;;;12.70;63.47;101257.09;687903;28;875;-80
2022/05/22 01:48:55;;;;;;;12.52;7.10;;;;;;;12.67;63.59;101259.63;682302;29;1161;-79
2022/05/22 01:49:17;;;;;;;10.25;6.82;;;;;;;12.68;63.34;101260.53;693724;28;1179;-79
2022/05/22 01:49:38;;;;;;;8.65;6.40;;;;;;;12.69;63.35;101268.44;689665;28;1260;-79
2022/05/22 01:50:02;;;;;;;9.55;6.65;;;;;;;12.68;63.30;101260.53;690439;28;969;-80
2022/05/22 01:50:23;;;;;;;11.55;6.63;;;;;;;12.63;63.54;101256.88;685138;28;1328;-79
2022/05/22 01:50:46;;;;;;;12.98;6.78;;;;;;;12.61;63.74;101252.50;685185;28;783;-80
2022/05/22 01:51:09;;;;;;;13.02;6.80;;;;;;;12.67;63.54;101264.00;690635;28;961;-79
2022/05/22 01:51:36;;;;;;;10.07;6.60;;;;;;;12.59;63.32;101248.94;687674;28;1542;-79
2022/05/22 01:51:56;;;;;;;13.50;6.78;;;;;;;12.68;63.43;101268.38;689986;28;1153;-79